sensor_id;sensor_type;location;lat;lon;timestamp;pressure;altitude;pressure_sealevel;temperature;humidity
73941;BME280;62294;48.554;10.202;2022-09-17T00:01:01;95665.50;;;9.42;79.09
73941;BME280;62294;48.554;10.202;2022-09-17T00:03:28;95655.34;;;9.39;79.36
73941;BME280;62294;48.554;10.202;2022-09-17T00:06:06;95667.09;;;9.25;79.59
73941;BME280;62294;48.554;10.202;2022-09-17T00:08:35;95660.03;;;9.19;79.77
73941;BME280;62294;48.554;10.202;2022-09-17T00:11:27;95652.69;;;9.21;79.81
73941;BME280;62294;48.554;10.202;2022-09-17T00:13:54;95657.56;;;9.24;79.44
73941;BME280;62294;48.554;10.202;2022-09-17T00:16:30;95659.59;;;9.22;79.69
73941;BME280;62294;48.554;10.202;2022-09-17T00:18:57;95652.59;;;9.27;79.29
73941;BME280;62294;48.554;10.202;2022-09-17T00:21:25;95657.97;;;9.21;79.55
73941;BME280;62294;48.554;10.202;2022-09-17T00:23:53;95661.06;;;9.18;79.75
73941;BME280;62294;48.554;10.202;2022-09-17T00:26:20;95655.91;;;9.23;79.21
73941;BME280;62294;48.554;10.202;2022-09-17T00:28:52;95667.91;;;9.07;79.53
73941;BME280;62294;48.554;10.202;2022-09-17T00:31:19;95668.59;;;8.78;81.01
73941;BME280;62294;48.554;10.202;2022-09-17T00:33:47;95687.16;;;8.72;81.11
73941;BME280;62294;48.554;10.202;2022-09-17T00:36:14;95689.78;;;8.78;81.14
73941;BME280;62294;48.554;10.202;2022-09-17T00:38:41;95683.41;;;9.04;80.40
73941;BME280;62294;48.554;10.202;2022-09-17T00:41:08;95678.28;;;9.09;79.80
73941;BME280;62294;48.554;10.202;2022-09-17T00:43:42;95673.13;;;9.14;79.32
73941;BME280;62294;48.554;10.202;2022-09-17T00:46:39;95675.28;;;9.05;79.89
73941;BME280;62294;48.554;10.202;2022-09-17T00:51:41;95680.09;;;8.66;81.48
73941;BME280;62294;48.554;10.202;2022-09-17T00:54:10;95678.09;;;8.61;81.27
73941;BME280;62294;48.554;10.202;2022-09-17T00:56:39;95691.09;;;8.63;81.36
73941;BME280;62294;48.554;10.202;2022-09-17T00:59:06;95688.31;;;8.57;81.61
73941;BME280;62294;48.554;10.202;2022-09-17T01:01:33;95688.78;;;8.48;81.02
73941;BME280;62294;48.554;10.202;2022-09-17T01:04:01;95693.72;;;8.69;80.33
73941;BME280;62294;48.554;10.202;2022-09-17T01:06:34;95698.81;;;8.71;80.70
73941;BME280;62294;48.554;10.202;2022-09-17T01:17:20;95700.50;;;8.90;78.63
73941;BME280;62294;48.554;10.202;2022-09-17T01:28:39;95701.72;;;9.12;77.62
73941;BME280;62294;48.554;10.202;2022-09-17T01:34:01;95714.84;;;9.25;77.36
73941;BME280;62294;48.554;10.202;2022-09-17T01:36:43;95711.00;;;9.21;76.23
73941;BME280;62294;48.554;10.202;2022-09-17T01:41:57;95723.22;;;9.22;76.65
73941;BME280;62294;48.554;10.202;2022-09-17T01:44:32;95713.06;;;9.19;76.78
73941;BME280;62294;48.554;10.202;2022-09-17T01:49:35;95710.19;;;9.20;76.86
73941;BME280;62294;48.554;10.202;2022-09-17T01:52:04;95718.16;;;9.20;76.98
73941;BME280;62294;48.554;10.202;2022-09-17T01:54:46;95713.25;;;9.24;76.48
73941;BME280;62294;48.554;10.202;2022-09-17T01:57:22;95714.50;;;9.15;76.84
73941;BME280;62294;48.554;10.202;2022-09-17T01:59:52;95721.56;;;9.03;77.77
73941;BME280;62294;48.554;10.202;2022-09-17T02:02:31;95716.69;;;9.00;78.08
73941;BME280;62294;48.554;10.202;2022-09-17T02:05:06;95712.88;;;8.96;77.23
73941;BME280;62294;48.554;10.202;2022-09-17T02:07:39;95707.09;;;9.05;77.13
73941;BME280;62294;48.554;10.202;2022-09-17T02:10:11;95702.38;;;9.07;77.15
73941;BME280;62294;48.554;10.202;2022-09-17T02:12:44;95702.56;;;9.06;77.00
73941;BME280;62294;48.554;10.202;2022-09-17T02:15:17;95693.66;;;9.00;76.18
73941;BME280;62294;48.554;10.202;2022-09-17T02:20:24;95694.25;;;9.02;76.24
73941;BME280;62294;48.554;10.202;2022-09-17T02:22:55;95694.31;;;8.96;76.65
73941;BME280;62294;48.554;10.202;2022-09-17T02:25:33;95694.91;;;8.98;76.54
73941;BME280;62294;48.554;10.202;2022-09-17T02:30:51;95697.03;;;8.89;76.44
73941;BME280;62294;48.554;10.202;2022-09-17T02:33:19;95698.25;;;8.87;76.82
73941;BME280;62294;48.554;10.202;2022-09-17T02:35:45;95696.03;;;8.84;77.00
73941;BME280;62294;48.554;10.202;2022-09-17T02:38:12;95697.84;;;8.90;77.40
73941;BME280;62294;48.554;10.202;2022-09-17T02:40:49;95697.38;;;8.93;76.80
73941;BME280;62294;48.554;10.202;2022-09-17T02:49:38;95692.84;;;9.00;76.60
73941;BME280;62294;48.554;10.202;2022-09-17T02:52:43;95687.28;;;9.08;76.73
73941;BME280;62294;48.554;10.202;2022-09-17T02:55:28;95677.16;;;8.98;77.25
73941;BME280;62294;48.554;10.202;2022-09-17T02:58:13;95677.81;;;8.94;76.46
73941;BME280;62294;48.554;10.202;2022-09-17T03:00:43;95682.84;;;9.02;77.22
73941;BME280;62294;48.554;10.202;2022-09-17T03:05:47;95678.84;;;8.93;77.63
73941;BME280;62294;48.554;10.202;2022-09-17T03:08:16;95668.22;;;8.93;77.51
73941;BME280;62294;48.554;10.202;2022-09-17T03:10:45;95674.84;;;8.84;77.34
73941;BME280;62294;48.554;10.202;2022-09-17T03:13:14;95674.84;;;8.84;77.86
73941;BME280;62294;48.554;10.202;2022-09-17T03:15:41;95675.13;;;8.76;77.69
73941;BME280;62294;48.554;10.202;2022-09-17T03:18:08;95675.88;;;8.83;78.45
73941;BME280;62294;48.554;10.202;2022-09-17T03:20:35;95670.69;;;8.70;78.07
73941;BME280;62294;48.554;10.202;2022-09-17T03:23:01;95670.13;;;8.86;77.89
73941;BME280;62294;48.554;10.202;2022-09-17T03:25:28;95674.66;;;8.79;77.80
73941;BME280;62294;48.554;10.202;2022-09-17T03:27:54;95674.84;;;8.84;77.56
73941;BME280;62294;48.554;10.202;2022-09-17T03:30:21;95676.56;;;8.72;78.08
73941;BME280;62294;48.554;10.202;2022-09-17T03:32:47;95685.03;;;8.62;78.69
73941;BME280;62294;48.554;10.202;2022-09-17T03:35:14;95684.63;;;8.58;78.57
73941;BME280;62294;48.554;10.202;2022-09-17T03:37:40;95673.66;;;8.55;78.33
73941;BME280;62294;48.554;10.202;2022-09-17T03:40:08;95675.59;;;8.41;79.00
73941;BME280;62294;48.554;10.202;2022-09-17T03:42:35;95673.00;;;8.28;79.11
73941;BME280;62294;48.554;10.202;2022-09-17T03:45:01;95666.50;;;8.24;79.62
73941;BME280;62294;48.554;10.202;2022-09-17T03:47:27;95665.34;;;8.14;79.99
73941;BME280;62294;48.554;10.202;2022-09-17T03:49:54;95673.75;;;8.04;80.21
73941;BME280;62294;48.554;10.202;2022-09-17T03:52:21;95670.78;;;7.87;79.66
73941;BME280;62294;48.554;10.202;2022-09-17T03:54:47;95670.44;;;7.77;80.96
73941;BME280;62294;48.554;10.202;2022-09-17T03:57:14;95676.56;;;7.65;80.86
73941;BME280;62294;48.554;10.202;2022-09-17T03:59:41;95676.56;;;7.65;80.76
73941;BME280;62294;48.554;10.202;2022-09-17T04:02:07;95681.50;;;7.55;80.68
73941;BME280;62294;48.554;10.202;2022-09-17T04:04:34;95683.13;;;7.56;80.44
73941;BME280;62294;48.554;10.202;2022-09-17T04:07:02;95682.53;;;7.54;80.71
73941;BME280;62294;48.554;10.202;2022-09-17T04:09:28;95673.81;;;7.40;81.91
73941;BME280;62294;48.554;10.202;2022-09-17T04:11:55;95678.28;;;7.40;81.83
73941;BME280;62294;48.554;10.202;2022-09-17T04:14:22;95674.63;;;7.47;81.79
73941;BME280;62294;48.554;10.202;2022-09-17T04:16:48;95673.75;;;7.60;81.35
73941;BME280;62294;48.554;10.202;2022-09-17T04:19:15;95679.41;;;7.70;81.15
73941;BME280;62294;48.554;10.202;2022-09-17T04:21:41;95669.81;;;7.82;80.89
73941;BME280;62294;48.554;10.202;2022-09-17T04:24:08;95674.66;;;7.92;79.99
73941;BME280;62294;48.554;10.202;2022-09-17T04:26:34;95678.03;;;7.99;79.34
73941;BME280;62294;48.554;10.202;2022-09-17T04:29:01;95677.22;;;8.05;79.36
73941;BME280;62294;48.554;10.202;2022-09-17T04:31:28;95674.53;;;8.11;79.36
73941;BME280;62294;48.554;10.202;2022-09-17T04:33:54;95672.25;;;8.21;78.86
73941;BME280;62294;48.554;10.202;2022-09-17T04:36:21;95674.25;;;8.19;79.46
73941;BME280;62294;48.554;10.202;2022-09-17T04:38:48;95671.00;;;8.30;78.76
73941;BME280;62294;48.554;10.202;2022-09-17T04:41:14;95678.72;;;8.25;79.06
73941;BME280;62294;48.554;10.202;2022-09-17T04:43:41;95679.22;;;8.09;78.89
73941;BME280;62294;48.554;10.202;2022-09-17T04:46:08;95678.00;;;8.12;78.73
73941;BME280;62294;48.554;10.202;2022-09-17T04:48:34;95678.03;;;8.05;78.75
73941;BME280;62294;48.554;10.202;2022-09-17T04:51:01;95682.97;;;7.95;79.37
73941;BME280;62294;48.554;10.202;2022-09-17T04:53:27;95678.53;;;7.89;79.71
73941;BME280;62294;48.554;10.202;2022-09-17T04:55:53;95677.53;;;7.83;79.59
73941;BME280;62294;48.554;10.202;2022-09-17T04:58:20;95678.56;;;7.76;80.08
73941;BME280;62294;48.554;10.202;2022-09-17T05:00:47;95691.63;;;7.71;80.41
73941;BME280;62294;48.554;10.202;2022-09-17T05:03:13;95695.06;;;7.71;79.57
73941;BME280;62294;48.554;10.202;2022-09-17T05:05:40;95688.31;;;7.82;80.16
73941;BME280;62294;48.554;10.202;2022-09-17T05:08:06;95692.81;;;7.75;79.47
73941;BME280;62294;48.554;10.202;2022-09-17T05:10:33;95698.88;;;7.88;79.65
73941;BME280;62294;48.554;10.202;2022-09-17T05:12:59;95702.09;;;7.97;79.37
73941;BME280;62294;48.554;10.202;2022-09-17T05:15:26;95701.66;;;8.00;78.40
73941;BME280;62294;48.554;10.202;2022-09-17T05:17:52;95708.94;;;8.11;78.96
73941;BME280;62294;48.554;10.202;2022-09-17T05:20:19;95721.75;;;8.08;78.34
73941;BME280;62294;48.554;10.202;2022-09-17T05:22:48;95721.16;;;8.12;78.92
73941;BME280;62294;48.554;10.202;2022-09-17T05:25:17;95716.00;;;8.30;78.27
73941;BME280;62294;48.554;10.202;2022-09-17T05:27:45;95724.91;;;8.36;77.25
73941;BME280;62294;48.554;10.202;2022-09-17T05:30:12;95723.03;;;8.43;77.52
73941;BME280;62294;48.554;10.202;2022-09-17T05:32:38;95717.75;;;8.43;77.27
73941;BME280;62294;48.554;10.202;2022-09-17T05:35:06;95715.63;;;8.51;77.40
73941;BME280;62294;48.554;10.202;2022-09-17T05:37:34;95729.78;;;8.39;77.58
73941;BME280;62294;48.554;10.202;2022-09-17T05:40:02;95737.72;;;8.39;78.30
73941;BME280;62294;48.554;10.202;2022-09-17T05:42:28;95730.75;;;8.44;77.80
73941;BME280;62294;48.554;10.202;2022-09-17T05:44:55;95740.97;;;8.41;78.62
73941;BME280;62294;48.554;10.202;2022-09-17T05:47:21;95738.06;;;8.49;78.12
73941;BME280;62294;48.554;10.202;2022-09-17T05:49:48;95747.00;;;8.54;78.91
73941;BME280;62294;48.554;10.202;2022-09-17T05:52:14;95750.84;;;8.58;77.26
73941;BME280;62294;48.554;10.202;2022-09-17T05:54:41;95743.72;;;8.59;77.58
73941;BME280;62294;48.554;10.202;2022-09-17T05:57:08;95748.38;;;8.64;76.87
73941;BME280;62294;48.554;10.202;2022-09-17T05:59:34;95751.50;;;8.79;76.85
73941;BME280;62294;48.554;10.202;2022-09-17T06:02:01;95761.69;;;8.82;76.81
73941;BME280;62294;48.554;10.202;2022-09-17T06:04:28;95756.81;;;8.79;76.91
73941;BME280;62294;48.554;10.202;2022-09-17T06:07:03;95763.47;;;8.88;76.25
73941;BME280;62294;48.554;10.202;2022-09-17T06:09:35;95754.34;;;8.84;76.28
73941;BME280;62294;48.554;10.202;2022-09-17T06:12:06;95751.91;;;8.82;77.20
73941;BME280;62294;48.554;10.202;2022-09-17T06:14:33;95762.13;;;8.79;76.98
73941;BME280;62294;48.554;10.202;2022-09-17T06:16:59;95762.03;;;8.92;75.91
73941;BME280;62294;48.554;10.202;2022-09-17T06:19:26;95770.41;;;8.89;75.90
73941;BME280;62294;48.554;10.202;2022-09-17T06:21:53;95755.84;;;8.73;75.46
73941;BME280;62294;48.554;10.202;2022-09-17T06:24:20;95770.50;;;8.76;75.83
73941;BME280;62294;48.554;10.202;2022-09-17T06:26:46;95773.94;;;8.83;76.35
73941;BME280;62294;48.554;10.202;2022-09-17T06:29:13;95772.69;;;8.85;76.50
73941;BME280;62294;48.554;10.202;2022-09-17T06:31:40;95781.91;;;8.76;75.53
73941;BME280;62294;48.554;10.202;2022-09-17T06:34:09;95786.41;;;8.76;75.74
73941;BME280;62294;48.554;10.202;2022-09-17T06:36:36;95784.94;;;8.80;76.03
73941;BME280;62294;48.554;10.202;2022-09-17T06:39:03;95793.66;;;8.87;75.08
73941;BME280;62294;48.554;10.202;2022-09-17T06:41:29;95789.84;;;8.45;76.38
73941;BME280;62294;48.554;10.202;2022-09-17T06:43:56;95792.25;;;8.84;76.42
73941;BME280;62294;48.554;10.202;2022-09-17T06:46:23;95794.09;;;9.08;74.71
73941;BME280;62294;48.554;10.202;2022-09-17T06:48:49;95804.41;;;9.23;74.01
73941;BME280;62294;48.554;10.202;2022-09-17T06:51:16;95806.56;;;9.33;72.96
73941;BME280;62294;48.554;10.202;2022-09-17T06:53:42;95818.09;;;9.20;73.37
73941;BME280;62294;48.554;10.202;2022-09-17T06:56:09;95825.56;;;9.54;72.30
73941;BME280;62294;48.554;10.202;2022-09-17T06:58:36;95825.84;;;9.46;72.05
73941;BME280;62294;48.554;10.202;2022-09-17T07:01:04;95825.09;;;9.39;72.52
73941;BME280;62294;48.554;10.202;2022-09-17T07:03:32;95825.56;;;9.29;71.93
73941;BME280;62294;48.554;10.202;2022-09-17T07:05:58;95830.16;;;9.16;72.61
73941;BME280;62294;48.554;10.202;2022-09-17T07:08:25;95831.16;;;9.15;72.51
73941;BME280;62294;48.554;10.202;2022-09-17T07:10:56;95838.03;;;8.98;72.40
73941;BME280;62294;48.554;10.202;2022-09-17T07:13:23;95841.00;;;8.77;73.18
73941;BME280;62294;48.554;10.202;2022-09-17T07:15:55;95836.44;;;8.90;73.05
73941;BME280;62294;48.554;10.202;2022-09-17T07:18:24;95828.63;;;9.02;72.82
73941;BME280;62294;48.554;10.202;2022-09-17T07:20:55;95826.50;;;9.17;73.01
73941;BME280;62294;48.554;10.202;2022-09-17T07:23:27;95829.38;;;9.09;72.66
73941;BME280;62294;48.554;10.202;2022-09-17T07:25:58;95828.09;;;8.55;75.35
73941;BME280;62294;48.554;10.202;2022-09-17T07:28:26;95826.56;;;9.04;73.08
73941;BME280;62294;48.554;10.202;2022-09-17T07:30:54;95835.34;;;9.04;73.07
73941;BME280;62294;48.554;10.202;2022-09-17T07:33:23;95842.81;;;9.14;73.07
73941;BME280;62294;48.554;10.202;2022-09-17T07:36:01;95838.84;;;9.72;71.88
73941;BME280;62294;48.554;10.202;2022-09-17T07:38:28;95841.25;;;9.98;71.21
73941;BME280;62294;48.554;10.202;2022-09-17T07:41:09;95844.81;;;10.11;70.52
73941;BME280;62294;48.554;10.202;2022-09-17T07:43:39;95845.41;;;9.94;70.19
73941;BME280;62294;48.554;10.202;2022-09-17T07:46:12;95843.22;;;10.76;69.49
73941;BME280;62294;48.554;10.202;2022-09-17T07:48:39;95839.31;;;10.12;70.11
73941;BME280;62294;48.554;10.202;2022-09-17T07:51:05;95835.19;;;10.16;70.33
73941;BME280;62294;48.554;10.202;2022-09-17T07:53:32;95838.00;;;10.69;68.04
73941;BME280;62294;48.554;10.202;2022-09-17T07:55:59;95838.94;;;11.04;67.95
73941;BME280;62294;48.554;10.202;2022-09-17T07:58:31;95834.06;;;11.43;66.97
73941;BME280;62294;48.554;10.202;2022-09-17T08:01:02;95838.59;;;11.42;66.35
73941;BME280;62294;48.554;10.202;2022-09-17T08:03:29;95846.19;;;11.38;66.32
73941;BME280;62294;48.554;10.202;2022-09-17T08:08:33;95854.91;;;10.56;68.10
73941;BME280;62294;48.554;10.202;2022-09-17T08:11:02;95856.50;;;10.28;68.52
73941;BME280;62294;48.554;10.202;2022-09-17T08:13:29;95843.03;;;10.05;70.74
73941;BME280;62294;48.554;10.202;2022-09-17T08:16:08;95850.09;;;10.17;71.58
73941;BME280;62294;48.554;10.202;2022-09-17T08:18:35;95848.84;;;10.20;72.04
73941;BME280;62294;48.554;10.202;2022-09-17T08:21:03;95844.38;;;10.14;72.89
73941;BME280;62294;48.554;10.202;2022-09-17T08:23:30;95847.56;;;10.22;71.65
73941;BME280;62294;48.554;10.202;2022-09-17T08:25:58;95849.56;;;10.27;72.27
73941;BME280;62294;48.554;10.202;2022-09-17T08:28:27;95844.53;;;10.37;72.01
73941;BME280;62294;48.554;10.202;2022-09-17T08:31:02;95841.13;;;10.48;71.59
73941;BME280;62294;48.554;10.202;2022-09-17T08:33:34;95848.84;;;10.20;71.80
73941;BME280;62294;48.554;10.202;2022-09-17T08:36:01;95854.16;;;9.95;72.85
73941;BME280;62294;48.554;10.202;2022-09-17T08:38:29;95855.78;;;9.53;75.57
73941;BME280;62294;48.554;10.202;2022-09-17T08:44:01;95859.63;;;9.33;77.70
73941;BME280;62294;48.554;10.202;2022-09-17T08:46:40;95866.66;;;9.45;77.84
73941;BME280;62294;48.554;10.202;2022-09-17T08:49:31;95860.00;;;10.04;76.05
73941;BME280;62294;48.554;10.202;2022-09-17T08:58:03;95864.38;;;10.52;76.11
73941;BME280;62294;48.554;10.202;2022-09-17T09:00:49;95851.59;;;11.20;74.53
73941;BME280;62294;48.554;10.202;2022-09-17T09:06:04;95856.25;;;11.89;72.73
73941;BME280;62294;48.554;10.202;2022-09-17T09:08:41;95861.72;;;11.53;72.95
73941;BME280;62294;48.554;10.202;2022-09-17T09:11:15;95857.75;;;11.97;71.75
73941;BME280;62294;48.554;10.202;2022-09-17T09:13:54;95854.84;;;11.98;70.09
73941;BME280;62294;48.554;10.202;2022-09-17T09:16:27;95860.09;;;10.99;73.85
73941;BME280;62294;48.554;10.202;2022-09-17T09:19:00;95858.72;;;10.49;74.18
73941;BME280;62294;48.554;10.202;2022-09-17T09:24:24;95858.00;;;11.84;70.32
73941;BME280;62294;48.554;10.202;2022-09-17T09:34:47;95884.16;;;12.10;70.18
73941;BME280;62294;48.554;10.202;2022-09-17T09:39:50;95883.00;;;11.41;70.42
73941;BME280;62294;48.554;10.202;2022-09-17T09:44:59;95883.28;;;11.63;69.69
73941;BME280;62294;48.554;10.202;2022-09-17T09:47:53;95880.94;;;13.11;66.64
73941;BME280;62294;48.554;10.202;2022-09-17T09:50:37;95881.72;;;13.23;64.47
73941;BME280;62294;48.554;10.202;2022-09-17T09:58:58;95880.38;;;14.03;59.56
73941;BME280;62294;48.554;10.202;2022-09-17T10:01:26;95886.22;;;12.82;63.13
73941;BME280;62294;48.554;10.202;2022-09-17T10:03:53;95889.53;;;12.61;64.81
73941;BME280;62294;48.554;10.202;2022-09-17T10:06:23;95879.75;;;12.27;64.38
73941;BME280;62294;48.554;10.202;2022-09-17T10:11:28;95889.81;;;11.67;67.38
73941;BME280;62294;48.554;10.202;2022-09-17T10:16:47;95897.94;;;11.43;69.21
73941;BME280;62294;48.554;10.202;2022-09-17T10:19:20;95902.94;;;11.21;69.55
73941;BME280;62294;48.554;10.202;2022-09-17T10:21:51;95906.09;;;11.18;68.93
73941;BME280;62294;48.554;10.202;2022-09-17T10:24:29;95903.22;;;11.01;69.21
73941;BME280;62294;48.554;10.202;2022-09-17T10:27:05;95908.22;;;11.09;69.13
73941;BME280;62294;48.554;10.202;2022-09-17T10:29:36;95905.50;;;11.27;68.52
73941;BME280;62294;48.554;10.202;2022-09-17T10:32:03;95906.56;;;11.26;69.94
73941;BME280;62294;48.554;10.202;2022-09-17T10:34:32;95909.03;;;11.10;68.66
73941;BME280;62294;48.554;10.202;2022-09-17T10:36:59;95907.28;;;11.33;68.35
73941;BME280;62294;48.554;10.202;2022-09-17T10:41:54;95895.47;;;10.70;69.49
73941;BME280;62294;48.554;10.202;2022-09-17T10:44:29;95896.22;;;11.60;67.88
73941;BME280;62294;48.554;10.202;2022-09-17T10:47:11;95889.16;;;13.21;64.29
73941;BME280;62294;48.554;10.202;2022-09-17T10:49:43;95886.28;;;15.04;61.58
73941;BME280;62294;48.554;10.202;2022-09-17T10:57:29;95892.22;;;13.91;59.86
73941;BME280;62294;48.554;10.202;2022-09-17T11:00:10;95885.91;;;13.64;59.47
73941;BME280;62294;48.554;10.202;2022-09-17T11:03:04;95878.03;;;13.12;61.18
73941;BME280;62294;48.554;10.202;2022-09-17T11:08:33;95882.44;;;14.94;53.71
73941;BME280;62294;48.554;10.202;2022-09-17T11:16:39;95881.22;;;12.46;61.49
73941;BME280;62294;48.554;10.202;2022-09-17T11:19:49;95898.41;;;11.92;65.48
73941;BME280;62294;48.554;10.202;2022-09-17T11:22:21;95898.69;;;10.90;69.97
73941;BME280;62294;48.554;10.202;2022-09-17T11:25:26;95901.88;;;10.62;71.36
73941;BME280;62294;48.554;10.202;2022-09-17T11:31:03;95890.88;;;11.07;71.79
73941;BME280;62294;48.554;10.202;2022-09-17T11:36:21;95880.00;;;12.77;67.19
73941;BME280;62294;48.554;10.202;2022-09-17T11:38:50;95870.03;;;13.90;65.17
73941;BME280;62294;48.554;10.202;2022-09-17T11:41:22;95865.31;;;14.31;65.52
73941;BME280;62294;48.554;10.202;2022-09-17T11:47:24;95856.59;;;15.85;57.63
73941;BME280;62294;48.554;10.202;2022-09-17T11:49:59;95859.88;;;14.64;58.72
73941;BME280;62294;48.554;10.202;2022-09-17T11:52:35;95863.59;;;15.33;60.36
73941;BME280;62294;48.554;10.202;2022-09-17T11:55:20;95852.84;;;15.54;56.71
73941;BME280;62294;48.554;10.202;2022-09-17T11:57:52;95843.44;;;15.84;58.29
73941;BME280;62294;48.554;10.202;2022-09-17T12:00:23;95847.84;;;16.93;52.74
73941;BME280;62294;48.554;10.202;2022-09-17T12:05:54;95848.41;;;13.42;61.87
73941;BME280;62294;48.554;10.202;2022-09-17T12:08:30;95833.03;;;12.48;64.33
73941;BME280;62294;48.554;10.202;2022-09-17T12:11:05;95835.84;;;13.92;60.79
73941;BME280;62294;48.554;10.202;2022-09-17T12:13:39;95841.00;;;14.54;58.85
73941;BME280;62294;48.554;10.202;2022-09-17T12:16:16;95833.13;;;14.64;57.25
73941;BME280;62294;48.554;10.202;2022-09-17T12:21:29;95833.28;;;13.81;57.91
73941;BME280;62294;48.554;10.202;2022-09-17T12:37:58;95828.53;;;13.66;55.84
73941;BME280;62294;48.554;10.202;2022-09-17T12:46:43;95879.88;;;9.76;73.26
73941;BME280;62294;48.554;10.202;2022-09-17T12:49:37;95871.63;;;9.35;75.81
73941;BME280;62294;48.554;10.202;2022-09-17T12:57:20;95888.25;;;8.86;77.51
73941;BME280;62294;48.554;10.202;2022-09-17T13:00:02;95879.47;;;8.48;78.85
73941;BME280;62294;48.554;10.202;2022-09-17T13:02:44;95885.63;;;8.29;78.24
73941;BME280;62294;48.554;10.202;2022-09-17T13:11:31;95865.34;;;7.97;77.56
73941;BME280;62294;48.554;10.202;2022-09-17T13:22:55;95841.63;;;9.10;78.41
73941;BME280;62294;48.554;10.202;2022-09-17T13:25:23;95834.84;;;9.63;75.85
73941;BME280;62294;48.554;10.202;2022-09-17T13:28:04;95835.28;;;10.03;76.78
73941;BME280;62294;48.554;10.202;2022-09-17T13:39:06;95828.81;;;11.13;72.50
73941;BME280;62294;48.554;10.202;2022-09-17T13:41:37;95835.56;;;11.38;71.47
73941;BME280;62294;48.554;10.202;2022-09-17T13:44:04;95830.34;;;11.43;71.73
73941;BME280;62294;48.554;10.202;2022-09-17T13:46:33;95837.75;;;11.41;71.25
73941;BME280;62294;48.554;10.202;2022-09-17T13:49:11;95839.66;;;10.70;71.35
73941;BME280;62294;48.554;10.202;2022-09-17T13:54:08;95843.56;;;10.97;71.61
73941;BME280;62294;48.554;10.202;2022-09-17T13:56:42;95831.56;;;11.06;72.90
73941;BME280;62294;48.554;10.202;2022-09-17T13:59:15;95834.28;;;11.41;73.23
73941;BME280;62294;48.554;10.202;2022-09-17T14:01:59;95842.22;;;11.94;73.08
73941;BME280;62294;48.554;10.202;2022-09-17T14:10:00;95859.78;;;10.59;76.62
73941;BME280;62294;48.554;10.202;2022-09-17T14:21:20;95859.59;;;10.25;77.38
73941;BME280;62294;48.554;10.202;2022-09-17T14:23:54;95867.53;;;10.61;77.98
73941;BME280;62294;48.554;10.202;2022-09-17T14:29:19;95862.47;;;10.41;77.37
73941;BME280;62294;48.554;10.202;2022-09-17T14:31:49;95889.44;;;9.77;77.21
73941;BME280;62294;48.554;10.202;2022-09-17T14:34:20;95887.88;;;8.83;77.63
73941;BME280;62294;48.554;10.202;2022-09-17T14:36:47;95879.44;;;8.54;78.99
73941;BME280;62294;48.554;10.202;2022-09-17T14:39:28;95880.91;;;8.50;78.35
73941;BME280;62294;48.554;10.202;2022-09-17T14:42:04;95890.56;;;8.12;79.62
73941;BME280;62294;48.554;10.202;2022-09-17T14:44:35;95872.47;;;8.03;80.15
73941;BME280;62294;48.554;10.202;2022-09-17T14:47:07;95866.50;;;8.20;80.30
73941;BME280;62294;48.554;10.202;2022-09-17T14:49:39;95856.59;;;8.60;79.71
73941;BME280;62294;48.554;10.202;2022-09-17T14:52:38;95860.97;;;9.10;80.54
73941;BME280;62294;48.554;10.202;2022-09-17T14:55:29;95862.91;;;8.97;79.17
73941;BME280;62294;48.554;10.202;2022-09-17T14:57:58;95855.41;;;8.94;78.41
73941;BME280;62294;48.554;10.202;2022-09-17T15:00:35;95862.16;;;8.83;80.33
73941;BME280;62294;48.554;10.202;2022-09-17T15:03:03;95857.19;;;9.00;79.23
73941;BME280;62294;48.554;10.202;2022-09-17T15:05:36;95852.56;;;9.20;80.42
73941;BME280;62294;48.554;10.202;2022-09-17T15:08:22;95860.44;;;9.33;79.64
73941;BME280;62294;48.554;10.202;2022-09-17T15:10:58;95865.22;;;9.18;79.39
73941;BME280;62294;48.554;10.202;2022-09-17T15:13:35;95874.22;;;9.17;79.92
73941;BME280;62294;48.554;10.202;2022-09-17T15:16:23;95873.13;;;8.93;81.19
73941;BME280;62294;48.554;10.202;2022-09-17T15:18:51;95872.59;;;9.16;80.85
73941;BME280;62294;48.554;10.202;2022-09-17T15:21:41;95874.34;;;9.28;79.76
73941;BME280;62294;48.554;10.202;2022-09-17T15:27:32;95876.50;;;9.38;78.20
73941;BME280;62294;48.554;10.202;2022-09-17T15:32:32;95875.38;;;9.52;78.93
73941;BME280;62294;48.554;10.202;2022-09-17T15:37:45;95861.03;;;9.60;76.30
73941;BME280;62294;48.554;10.202;2022-09-17T15:40:35;95858.91;;;9.68;77.94
73941;BME280;62294;48.554;10.202;2022-09-17T15:43:24;95855.50;;;9.61;79.04
73941;BME280;62294;48.554;10.202;2022-09-17T15:45:53;95865.25;;;9.67;77.31
73941;BME280;62294;48.554;10.202;2022-09-17T15:51:05;95868.94;;;9.66;77.61
73941;BME280;62294;48.554;10.202;2022-09-17T15:53:33;95871.94;;;9.45;77.91
73941;BME280;62294;48.554;10.202;2022-09-17T15:56:05;95862.00;;;9.41;77.39
73941;BME280;62294;48.554;10.202;2022-09-17T16:08:45;95865.81;;;9.20;78.83
73941;BME280;62294;48.554;10.202;2022-09-17T16:11:13;95860.88;;;8.99;77.74
73941;BME280;62294;48.554;10.202;2022-09-17T16:13:40;95868.97;;;9.04;78.09
73941;BME280;62294;48.554;10.202;2022-09-17T16:16:13;95869.84;;;8.98;78.71
73941;BME280;62294;48.554;10.202;2022-09-17T16:18:41;95867.75;;;9.06;78.28
73941;BME280;62294;48.554;10.202;2022-09-17T16:21:09;95872.88;;;9.33;77.54
73941;BME280;62294;48.554;10.202;2022-09-17T16:23:36;95870.44;;;9.31;77.07
73941;BME280;62294;48.554;10.202;2022-09-17T16:26:04;95872.94;;;9.26;77.79
73941;BME280;62294;48.554;10.202;2022-09-17T16:28:31;95865.72;;;9.02;78.40
73941;BME280;62294;48.554;10.202;2022-09-17T16:30:58;95870.63;;;9.05;77.98
73941;BME280;62294;48.554;10.202;2022-09-17T16:33:25;95870.06;;;9.27;78.72
73941;BME280;62294;48.554;10.202;2022-09-17T16:35:57;95874.53;;;9.27;78.25
73941;BME280;62294;48.554;10.202;2022-09-17T16:38:24;95881.03;;;9.31;78.19
73941;BME280;62294;48.554;10.202;2022-09-17T16:40:51;95878.31;;;9.13;79.22
73941;BME280;62294;48.554;10.202;2022-09-17T16:43:18;95870.34;;;9.13;78.85